createdAt,value
2023-05-11T00:01:12.977Z,12.45
2023-05-11T00:03:39.652Z,12.50
2023-05-11T00:06:06.559Z,12.44
2023-05-11T00:08:33.302Z,12.47
2023-05-11T00:11:03.024Z,12.50
2023-05-11T00:13:29.762Z,12.52
2023-05-11T00:15:56.710Z,12.46
2023-05-11T00:18:23.577Z,12.46
2023-05-11T00:20:50.345Z,12.48
2023-05-11T00:23:17.122Z,12.51
2023-05-11T00:25:43.886Z,12.48
2023-05-11T00:28:14.149Z,12.49
2023-05-11T00:30:41.429Z,12.45
2023-05-11T00:33:08.110Z,12.42
2023-05-11T00:35:34.828Z,12.49
2023-05-11T00:38:01.532Z,12.37
2023-05-11T00:40:28.536Z,12.44
2023-05-11T00:42:55.386Z,12.41
2023-05-11T00:45:22.052Z,12.38
2023-05-11T00:47:48.772Z,12.48
2023-05-11T00:50:15.980Z,12.47
2023-05-11T00:52:43.058Z,12.44
2023-05-11T00:55:10.379Z,12.47
2023-05-11T00:57:38.811Z,12.43
2023-05-11T01:00:07.229Z,12.43
2023-05-11T01:02:34.248Z,12.43
2023-05-11T01:05:03.602Z,12.48
2023-05-11T01:07:37.233Z,12.45
2023-05-11T01:10:13.958Z,12.44
2023-05-11T01:13:04.938Z,12.46
2023-05-11T01:15:42.223Z,12.46
2023-05-11T01:18:08.863Z,12.46
2023-05-11T01:20:36.077Z,12.47
2023-05-11T01:23:14.374Z,12.42
2023-05-11T01:26:04.312Z,12.43
2023-05-11T01:29:10.752Z,12.43
2023-05-11T01:31:42.496Z,12.44
2023-05-11T01:34:19.383Z,12.41
2023-05-11T01:36:58.555Z,12.36
2023-05-11T01:39:32.261Z,12.33
2023-05-11T01:42:06.685Z,12.36
2023-05-11T01:44:35.544Z,12.38
2023-05-11T01:47:03.555Z,12.35
2023-05-11T01:49:35.304Z,12.32
2023-05-11T01:52:04.102Z,12.35
2023-05-11T01:54:32.089Z,12.35
2023-05-11T01:57:00.757Z,12.31
2023-05-11T01:59:29.014Z,12.31
2023-05-11T02:01:58.017Z,12.27
2023-05-11T02:04:26.668Z,12.23
2023-05-11T02:06:55.190Z,12.27
2023-05-11T02:09:23.097Z,12.26
2023-05-11T02:11:51.101Z,12.33
2023-05-11T02:14:19.957Z,12.23
2023-05-11T02:16:48.054Z,12.31
2023-05-11T02:19:15.698Z,12.24
2023-05-11T02:21:46.188Z,12.23
2023-05-11T02:24:13.213Z,12.23
2023-05-11T02:26:39.940Z,12.23
2023-05-11T02:29:06.708Z,12.18
2023-05-11T02:31:40.300Z,12.22
2023-05-11T02:34:19.051Z,12.21
2023-05-11T02:36:48.348Z,12.26
2023-05-11T02:39:21.969Z,12.22
2023-05-11T02:41:57.076Z,12.26
2023-05-11T02:44:31.027Z,12.24
2023-05-11T02:47:01.526Z,12.23
2023-05-11T02:49:30.914Z,12.17
2023-05-11T02:52:01.158Z,12.13
2023-05-11T02:54:29.360Z,12.20
2023-05-11T02:56:56.728Z,12.20
2023-05-11T02:59:24.837Z,12.20
2023-05-11T03:01:53.019Z,12.17
2023-05-11T03:04:19.770Z,12.19
2023-05-11T03:06:46.700Z,12.23
2023-05-11T03:09:13.740Z,12.23
2023-05-11T03:11:41.245Z,12.23
2023-05-11T03:14:08.343Z,12.24
2023-05-11T03:16:37.510Z,12.16
2023-05-11T03:19:09.321Z,12.21
2023-05-11T03:21:37.665Z,12.12
2023-05-11T03:24:07.139Z,12.14
2023-05-11T03:26:35.240Z,12.19
2023-05-11T03:29:03.194Z,12.18
2023-05-11T03:31:30.038Z,12.16
2023-05-11T03:33:57.527Z,12.10
2023-05-11T03:36:25.515Z,12.11
2023-05-11T03:38:56.528Z,12.02
2023-05-11T03:41:25.936Z,12.08
2023-05-11T03:43:54.459Z,12.03
2023-05-11T03:46:22.793Z,12.01
2023-05-11T03:48:50.735Z,11.99
2023-05-11T03:51:17.524Z,12.00
2023-05-11T03:53:44.349Z,12.01
2023-05-11T03:56:11.362Z,12.03
2023-05-11T03:58:40.510Z,12.00
2023-05-11T04:01:10.977Z,11.97
2023-05-11T04:03:51.245Z,11.99
2023-05-11T04:06:19.133Z,11.94
2023-05-11T04:08:46.018Z,11.90
2023-05-11T04:11:12.680Z,11.94
2023-05-11T04:13:39.423Z,11.99
2023-05-11T04:16:06.637Z,12.00
2023-05-11T04:18:33.487Z,12.00
2023-05-11T04:21:00.300Z,11.94
2023-05-11T04:23:26.971Z,11.91
2023-05-11T04:25:57.392Z,11.91
2023-05-11T04:28:27.574Z,11.95
2023-05-11T04:30:55.648Z,12.01
2023-05-11T04:33:23.117Z,11.98
2023-05-11T04:35:54.408Z,11.90
2023-05-11T04:38:22.233Z,11.96
2023-05-11T04:40:50.554Z,11.90
2023-05-11T04:43:18.100Z,11.88
2023-05-11T04:45:49.378Z,11.92
2023-05-11T04:48:18.091Z,12.00
2023-05-11T04:50:47.100Z,12.18
2023-05-11T04:53:13.834Z,12.04
2023-05-11T04:55:40.778Z,12.13
2023-05-11T04:58:07.420Z,12.01
2023-05-11T05:00:34.185Z,12.04
2023-05-11T05:03:01.022Z,12.10
2023-05-11T05:05:27.777Z,12.11
2023-05-11T05:07:54.518Z,12.05
2023-05-11T05:10:21.920Z,12.19
2023-05-11T05:12:48.912Z,12.19
2023-05-11T05:15:15.611Z,12.09
2023-05-11T05:17:42.240Z,12.23
2023-05-11T05:20:09.254Z,12.16
2023-05-11T05:22:35.901Z,12.22
2023-05-11T05:25:02.586Z,12.24
2023-05-11T05:27:29.249Z,12.23
2023-05-11T05:29:58.619Z,12.23
2023-05-11T05:32:25.455Z,12.20
2023-05-11T05:34:52.473Z,12.25
2023-05-11T05:37:19.232Z,12.40
2023-05-11T05:39:48.268Z,12.57
2023-05-11T05:42:15.162Z,12.66
2023-05-11T05:44:41.925Z,12.52
2023-05-11T05:47:08.593Z,12.64
2023-05-11T05:49:35.362Z,12.68
2023-05-11T05:52:02.139Z,12.68
2023-05-11T05:54:28.934Z,12.62
2023-05-11T05:56:55.613Z,12.57
2023-05-11T05:59:24.263Z,12.61
2023-05-11T06:01:51.607Z,12.77
2023-05-11T06:04:18.638Z,12.85
2023-05-11T06:06:46.463Z,13.30
2023-05-11T06:09:13.824Z,13.47
2023-05-11T06:11:41.116Z,13.83
2023-05-11T06:14:07.743Z,13.27
2023-05-11T06:16:34.596Z,13.69
2023-05-11T06:19:01.392Z,13.72
2023-05-11T06:21:28.188Z,13.61
2023-05-11T06:23:54.866Z,13.93
2023-05-11T06:26:24.970Z,13.61
2023-05-11T06:28:52.871Z,13.82
2023-05-11T06:31:19.856Z,13.83
2023-05-11T06:33:46.561Z,13.81
2023-05-11T06:36:13.240Z,13.89
2023-05-11T06:38:39.919Z,14.04
2023-05-11T06:41:07.480Z,14.32
2023-05-11T06:43:34.242Z,14.25
2023-05-11T06:46:00.922Z,13.96
2023-05-11T06:48:29.801Z,14.25
2023-05-11T06:50:57.152Z,14.46
2023-05-11T06:53:23.826Z,14.58
2023-05-11T06:55:50.772Z,14.35
2023-05-11T06:58:20.470Z,14.19
2023-05-11T07:00:47.499Z,14.52
2023-05-11T07:03:14.314Z,14.33
2023-05-11T07:05:41.181Z,14.00
2023-05-11T07:08:07.958Z,14.17
2023-05-11T07:10:34.697Z,14.30
2023-05-11T07:13:01.331Z,14.16
2023-05-11T07:15:28.192Z,14.33
2023-05-11T07:17:55.061Z,14.28
2023-05-11T07:20:21.811Z,14.43
2023-05-11T07:22:48.606Z,14.12
2023-05-11T07:25:15.319Z,14.25
2023-05-11T07:27:42.086Z,14.59
2023-05-11T07:30:09.046Z,14.44
2023-05-11T07:32:35.923Z,14.38
2023-05-11T07:35:02.628Z,14.44
2023-05-11T07:37:29.310Z,14.28
2023-05-11T07:39:55.979Z,14.51
2023-05-11T07:42:23.098Z,14.25
2023-05-11T07:44:49.941Z,14.37
2023-05-11T07:47:18.930Z,14.43
2023-05-11T07:49:47.371Z,14.17
2023-05-11T07:52:17.140Z,14.23
2023-05-11T07:54:44.076Z,14.22
2023-05-11T07:57:14.050Z,14.17
2023-05-11T07:59:41.093Z,14.08
2023-05-11T08:02:11.467Z,14.20
2023-05-11T08:04:40.678Z,14.17
2023-05-11T08:07:07.569Z,13.97
2023-05-11T08:09:34.204Z,14.20
2023-05-11T08:12:02.201Z,14.15
2023-05-11T08:14:28.869Z,14.12
2023-05-11T08:16:55.879Z,14.28
2023-05-11T08:19:22.540Z,14.39
2023-05-11T08:21:49.487Z,14.17
2023-05-11T08:24:16.335Z,14.11
2023-05-11T08:26:43.303Z,14.28
2023-05-11T08:29:12.395Z,14.28
2023-05-11T08:31:40.410Z,14.38
2023-05-11T08:34:18.226Z,14.42
2023-05-11T08:36:46.837Z,14.48
2023-05-11T08:39:13.563Z,14.47
2023-05-11T08:41:40.440Z,14.48
2023-05-11T08:44:08.149Z,14.39
2023-05-11T08:46:38.602Z,14.63
2023-05-11T08:49:07.115Z,14.69
2023-05-11T08:51:33.801Z,14.49
2023-05-11T08:54:00.478Z,14.37
2023-05-11T08:56:29.588Z,14.59
2023-05-11T08:58:57.772Z,14.59
2023-05-11T09:01:28.342Z,14.60
2023-05-11T09:03:56.344Z,14.59
2023-05-11T09:06:25.317Z,14.72
2023-05-11T09:08:52.965Z,14.86
2023-05-11T09:11:20.099Z,14.87
2023-05-11T09:13:47.359Z,14.86
2023-05-11T09:18:50.793Z,14.91
2023-05-11T09:21:17.714Z,15.03
2023-05-11T09:23:44.866Z,14.88
2023-05-11T09:26:15.699Z,14.90
2023-05-11T09:29:02.424Z,14.64
2023-05-11T09:31:45.849Z,14.73
2023-05-11T09:34:17.214Z,14.70
2023-05-11T09:36:46.098Z,14.63
2023-05-11T09:39:15.913Z,14.65
2023-05-11T09:41:43.413Z,14.50
2023-05-11T09:44:15.256Z,14.73
2023-05-11T09:46:44.365Z,14.60
2023-05-11T09:49:12.272Z,14.48
2023-05-11T09:51:40.829Z,14.47
2023-05-11T09:54:18.049Z,14.54
2023-05-11T09:56:49.488Z,14.48
2023-05-11T09:59:18.179Z,14.60
2023-05-11T10:01:45.012Z,14.42
2023-05-11T10:04:22.943Z,14.51
2023-05-11T10:06:55.520Z,14.53
2023-05-11T10:09:27.221Z,14.45
2023-05-11T10:11:55.659Z,14.35
2023-05-11T10:14:22.690Z,14.32
2023-05-11T10:16:50.090Z,14.23
2023-05-11T10:19:17.484Z,14.06
2023-05-11T10:21:44.790Z,14.00
2023-05-11T10:24:11.867Z,14.17
2023-05-11T10:26:38.948Z,14.29
2023-05-11T10:29:05.941Z,14.23
2023-05-11T10:31:33.512Z,14.24
2023-05-11T10:34:01.917Z,14.21
2023-05-11T10:36:29.233Z,14.40
2023-05-11T10:38:56.151Z,14.50
2023-05-11T10:42:00.218Z,14.42
2023-05-11T10:45:04.175Z,14.44
2023-05-11T10:48:06.371Z,14.39
2023-05-11T10:51:00.932Z,14.37
2023-05-11T10:53:49.345Z,14.29
2023-05-11T10:56:31.720Z,14.29
2023-05-11T10:59:10.472Z,14.32
2023-05-11T11:01:39.863Z,14.36
2023-05-11T11:04:08.796Z,14.40
2023-05-11T11:06:40.504Z,14.40
2023-05-11T11:09:13.318Z,14.36
2023-05-11T11:11:50.327Z,14.69
2023-05-11T11:14:18.368Z,14.61
2023-05-11T11:17:14.276Z,14.67
2023-05-11T11:19:41.132Z,14.60
2023-05-11T11:22:37.004Z,14.81
2023-05-11T11:25:08.590Z,14.79
2023-05-11T11:27:41.466Z,14.81
2023-05-11T11:30:18.332Z,14.77
2023-05-11T11:32:46.588Z,14.98
2023-05-11T11:35:47.355Z,15.23
2023-05-11T11:38:20.531Z,15.20
2023-05-11T11:40:51.673Z,15.00
2023-05-11T11:43:24.695Z,15.14
2023-05-11T11:46:01.603Z,15.07
2023-05-11T11:48:40.513Z,15.12
2023-05-11T11:51:08.998Z,15.19
2023-05-11T11:53:43.674Z,15.27
2023-05-11T11:56:18.697Z,15.55
2023-05-11T11:58:45.281Z,15.88
2023-05-11T12:01:12.580Z,15.89
2023-05-11T12:03:41.822Z,16.00
2023-05-11T12:06:10.118Z,16.40
2023-05-11T12:08:38.887Z,16.45
2023-05-11T12:11:07.212Z,16.55
2023-05-11T12:13:35.397Z,16.73
2023-05-11T12:16:16.307Z,17.11
2023-05-11T12:18:52.832Z,17.66
2023-05-11T12:21:21.212Z,17.88
2023-05-11T12:23:56.301Z,17.75
2023-05-11T12:26:24.713Z,18.22
2023-05-11T12:29:05.962Z,18.28
2023-05-11T12:31:40.900Z,18.61
2023-05-11T12:34:15.180Z,18.24
2023-05-11T12:36:42.661Z,18.31
2023-05-11T12:39:17.637Z,18.38
2023-05-11T12:41:45.113Z,18.33
2023-05-11T12:44:12.064Z,18.32
2023-05-11T12:46:39.223Z,18.20
2023-05-11T12:49:06.593Z,18.40
2023-05-11T12:52:01.300Z,18.18
2023-05-11T12:54:38.367Z,18.10
2023-05-11T12:57:06.885Z,18.34
2023-05-11T12:59:39.399Z,18.68
2023-05-11T13:02:07.020Z,18.79
2023-05-11T13:04:33.968Z,18.77
2023-05-11T13:07:00.809Z,18.25
2023-05-11T13:09:28.144Z,18.71
2023-05-11T13:12:32.304Z,18.94
2023-05-11T13:15:07.864Z,18.69
2023-05-11T13:17:37.367Z,19.40
2023-05-11T13:20:27.946Z,19.24
2023-05-11T13:23:10.849Z,19.36
2023-05-11T13:25:46.563Z,19.05
2023-05-11T13:28:18.495Z,19.17
2023-05-11T13:30:46.681Z,19.02
2023-05-11T13:33:13.593Z,18.97
2023-05-11T13:35:41.659Z,18.33
2023-05-11T13:38:12.224Z,19.06
2023-05-11T13:40:39.211Z,19.01
2023-05-11T13:43:07.566Z,19.47
2023-05-11T13:45:36.456Z,19.44
2023-05-11T13:48:03.576Z,19.30
2023-05-11T13:50:30.795Z,19.04
2023-05-11T13:52:57.516Z,18.91
2023-05-11T13:55:25.247Z,18.72
2023-05-11T13:57:52.039Z,18.81
2023-05-11T14:00:19.708Z,18.87
2023-05-11T14:02:48.306Z,18.78
2023-05-11T14:05:15.235Z,19.01
2023-05-11T14:07:46.953Z,19.18
2023-05-11T14:10:15.623Z,19.34
2023-05-11T14:12:42.556Z,19.28
2023-05-11T14:15:09.790Z,19.49
2023-05-11T14:17:36.736Z,19.77
2023-05-11T14:20:04.359Z,19.65
2023-05-11T14:22:31.265Z,19.27
2023-05-11T14:24:58.025Z,19.00
2023-05-11T14:27:24.705Z,19.15
2023-05-11T14:29:52.178Z,19.03
2023-05-11T14:32:19.603Z,19.35
2023-05-11T14:34:46.758Z,19.41
2023-05-11T14:37:13.472Z,19.17
2023-05-11T14:39:41.365Z,18.95
2023-05-11T14:42:08.405Z,18.93
2023-05-11T14:44:35.197Z,19.10
2023-05-11T14:47:02.050Z,19.21
2023-05-11T14:49:28.864Z,19.30
2023-05-11T14:51:56.622Z,19.31
2023-05-11T14:54:23.447Z,19.21
2023-05-11T14:56:53.930Z,19.24
2023-05-11T14:59:21.946Z,19.17
2023-05-11T15:01:49.624Z,19.18
2023-05-11T15:04:16.942Z,19.18
2023-05-11T15:06:43.996Z,19.07
2023-05-11T15:09:10.821Z,19.06
2023-05-11T15:11:37.549Z,19.13
2023-05-11T15:14:05.850Z,18.89
2023-05-11T15:16:33.111Z,18.80
2023-05-11T15:19:00.111Z,18.65
2023-05-11T15:21:27.418Z,18.61
2023-05-11T15:23:54.348Z,18.38
2023-05-11T15:26:22.311Z,18.01
2023-05-11T15:28:49.264Z,18.03
2023-05-11T15:31:16.167Z,18.22
2023-05-11T15:33:43.344Z,17.97
2023-05-11T15:36:14.354Z,17.70
2023-05-11T15:38:42.568Z,17.54
2023-05-11T15:41:09.475Z,17.51
2023-05-11T15:43:36.192Z,17.70
2023-05-11T15:46:03.881Z,17.57
2023-05-11T15:48:30.834Z,17.51
2023-05-11T15:50:59.909Z,17.50
2023-05-11T15:53:27.056Z,17.45
2023-05-11T15:55:55.546Z,17.29
2023-05-11T15:58:22.553Z,17.52
2023-05-11T16:00:49.400Z,17.34
2023-05-11T16:03:16.570Z,17.27
2023-05-11T16:05:44.466Z,17.23
2023-05-11T16:08:11.292Z,17.21
2023-05-11T16:10:38.049Z,16.95
2023-05-11T16:13:04.785Z,16.99
2023-05-11T16:15:31.958Z,17.14
2023-05-11T16:17:58.820Z,17.15
2023-05-11T16:20:25.793Z,17.03
2023-05-11T16:22:52.572Z,17.09
2023-05-11T16:25:19.262Z,16.97
2023-05-11T16:27:45.873Z,16.87
2023-05-11T16:30:23.027Z,17.27
2023-05-11T16:32:51.959Z,16.95
2023-05-11T16:35:18.773Z,16.75
2023-05-11T16:37:46.717Z,16.78
2023-05-11T16:40:13.598Z,17.09
2023-05-11T16:42:40.380Z,16.94
2023-05-11T16:45:07.426Z,17.12
2023-05-11T16:47:34.214Z,16.91
2023-05-11T16:50:00.950Z,16.91
2023-05-11T16:52:27.750Z,17.06
2023-05-11T16:54:58.984Z,17.24
2023-05-11T16:57:26.052Z,17.26
2023-05-11T16:59:52.746Z,17.58
2023-05-11T17:02:19.963Z,17.46
2023-05-11T17:04:46.974Z,17.58
2023-05-11T17:07:16.076Z,17.69
2023-05-11T17:09:43.092Z,17.59
2023-05-11T17:12:13.170Z,17.80
2023-05-11T17:14:39.848Z,17.60
2023-05-11T17:17:08.122Z,17.64
2023-05-11T17:19:34.849Z,17.87
2023-05-11T17:22:01.589Z,17.62
2023-05-11T17:24:28.658Z,17.67
2023-05-11T17:26:55.540Z,17.54
2023-05-11T17:29:24.430Z,17.66
2023-05-11T17:31:51.863Z,17.45
2023-05-11T17:34:19.742Z,17.59
2023-05-11T17:36:48.416Z,17.37
2023-05-11T17:39:16.442Z,17.45
2023-05-11T17:41:43.569Z,17.36
2023-05-11T17:44:10.314Z,17.28
2023-05-11T17:46:37.015Z,17.15
2023-05-11T17:49:04.141Z,17.26
2023-05-11T17:51:31.286Z,17.15
2023-05-11T17:53:57.915Z,16.91
2023-05-11T17:56:24.620Z,16.78
2023-05-11T17:58:57.413Z,16.92
2023-05-11T18:01:24.230Z,16.60
2023-05-11T18:03:51.037Z,16.70
2023-05-11T18:06:17.798Z,16.48
2023-05-11T18:08:45.018Z,16.64
2023-05-11T18:11:12.842Z,16.43
2023-05-11T18:13:40.446Z,16.49
2023-05-11T18:16:07.515Z,16.49
2023-05-11T18:18:34.536Z,16.47
2023-05-11T18:21:05.744Z,16.19
2023-05-11T18:23:32.875Z,16.25
2023-05-11T18:25:59.632Z,16.11
2023-05-11T18:28:26.313Z,16.14
2023-05-11T18:30:54.143Z,16.04
2023-05-11T18:33:21.086Z,15.94
2023-05-11T18:35:48.104Z,16.03
2023-05-11T18:38:14.744Z,16.02
2023-05-11T18:40:41.530Z,15.95
2023-05-11T18:43:08.629Z,15.68
2023-05-11T18:45:35.308Z,15.65
2023-05-11T18:48:02.899Z,15.53
2023-05-11T18:50:30.194Z,15.38
2023-05-11T18:52:57.792Z,15.63
2023-05-11T18:55:25.314Z,15.42
2023-05-11T18:57:52.797Z,15.24
2023-05-11T19:00:20.414Z,15.27
2023-05-11T19:02:48.246Z,15.20
2023-05-11T19:05:15.168Z,15.09
2023-05-11T19:07:42.090Z,15.18
2023-05-11T19:10:09.208Z,15.08
2023-05-11T19:12:35.897Z,14.96
2023-05-11T19:15:02.581Z,15.08
2023-05-11T19:17:29.266Z,14.95
2023-05-11T19:19:59.649Z,14.89
2023-05-11T19:22:26.466Z,14.92
2023-05-11T19:24:53.188Z,14.80
2023-05-11T19:27:20.054Z,14.84
2023-05-11T19:29:50.145Z,14.81
2023-05-11T19:32:18.938Z,14.64
2023-05-11T19:34:45.829Z,14.67
2023-05-11T19:37:12.528Z,14.59
2023-05-11T19:39:39.223Z,14.70
2023-05-11T19:42:05.992Z,14.51
2023-05-11T19:44:33.230Z,14.56
2023-05-11T19:46:59.991Z,14.51
2023-05-11T19:49:27.987Z,14.41
2023-05-11T19:51:55.134Z,14.37
2023-05-11T19:54:22.348Z,14.42
2023-05-11T19:56:49.069Z,14.46
2023-05-11T19:59:15.748Z,14.35
2023-05-11T20:01:42.458Z,14.31
2023-05-11T20:04:09.391Z,14.57
2023-05-11T20:06:36.078Z,14.58
2023-05-11T20:09:02.775Z,14.35
2023-05-11T20:11:31.130Z,14.27
2023-05-11T20:14:00.730Z,14.48
2023-05-11T20:16:30.769Z,14.50
2023-05-11T20:18:59.260Z,14.51
2023-05-11T20:21:26.518Z,14.63
2023-05-11T20:23:53.478Z,14.57
2023-05-11T20:26:20.227Z,14.62
2023-05-11T20:28:46.881Z,14.45
2023-05-11T20:31:13.569Z,14.55
2023-05-11T20:36:10.442Z,14.47
2023-05-11T20:38:37.106Z,14.63
2023-05-11T20:41:03.763Z,14.55
2023-05-11T20:43:30.625Z,14.63
2023-05-11T20:46:03.376Z,14.62
2023-05-11T20:48:39.165Z,14.53
2023-05-11T20:51:07.735Z,14.69
2023-05-11T20:53:34.531Z,14.71
2023-05-11T20:56:02.796Z,14.54
2023-05-11T20:58:30.951Z,14.53
2023-05-11T21:00:57.966Z,14.63
2023-05-11T21:03:26.727Z,14.54
2023-05-11T21:05:53.820Z,14.58
2023-05-11T21:08:20.749Z,14.74
2023-05-11T21:10:47.525Z,14.72
2023-05-11T21:13:14.292Z,14.72
2023-05-11T21:15:41.323Z,14.46
2023-05-11T21:18:08.121Z,14.42
2023-05-11T21:20:34.848Z,14.38
2023-05-11T21:23:01.970Z,14.13
2023-05-11T21:25:28.631Z,14.20
2023-05-11T21:27:55.345Z,14.02
2023-05-11T21:30:24.708Z,13.84
2023-05-11T21:32:51.478Z,13.83
2023-05-11T21:35:18.677Z,13.85
2023-05-11T21:37:49.491Z,13.95
2023-05-11T21:40:17.946Z,13.71
2023-05-11T21:42:45.191Z,13.64
2023-05-11T21:45:12.139Z,13.60
2023-05-11T21:47:39.443Z,13.52
2023-05-11T21:50:08.478Z,13.44
2023-05-11T21:52:35.275Z,13.40
2023-05-11T21:55:02.004Z,13.39
2023-05-11T21:57:29.162Z,13.30
2023-05-11T21:59:55.802Z,13.27
2023-05-11T22:02:23.021Z,13.34
2023-05-11T22:04:49.900Z,13.34
2023-05-11T22:07:16.581Z,13.28
2023-05-11T22:09:43.461Z,13.34
2023-05-11T22:12:10.186Z,13.30
2023-05-11T22:14:36.770Z,13.30
2023-05-11T22:17:03.559Z,13.30
2023-05-11T22:19:30.311Z,13.35
2023-05-11T22:21:57.042Z,13.35
2023-05-11T22:24:26.924Z,13.43
2023-05-11T22:26:54.231Z,13.48
2023-05-11T22:29:22.119Z,13.51
2023-05-11T22:31:51.581Z,13.59
2023-05-11T22:34:20.974Z,13.56
2023-05-11T22:36:47.608Z,13.62
2023-05-11T22:39:14.393Z,13.67
2023-05-11T22:41:41.129Z,13.79
2023-05-11T22:44:08.397Z,13.88
2023-05-11T22:46:35.104Z,14.01
2023-05-11T22:49:01.935Z,14.08
2023-05-11T22:51:28.692Z,13.99
2023-05-11T22:53:55.392Z,14.10
2023-05-11T22:56:22.273Z,14.10
2023-05-11T22:58:49.110Z,14.08
2023-05-11T23:01:15.845Z,14.21
2023-05-11T23:03:42.803Z,14.07
2023-05-11T23:06:09.615Z,14.04
2023-05-11T23:08:36.375Z,14.06
2023-05-11T23:11:03.313Z,14.03
2023-05-11T23:13:29.995Z,14.04
2023-05-11T23:15:56.640Z,14.06
2023-05-11T23:18:23.470Z,14.07
2023-05-11T23:20:58.174Z,14.23
2023-05-11T23:23:26.785Z,14.10
2023-05-11T23:25:53.825Z,14.05
2023-05-11T23:28:20.778Z,14.04
2023-05-11T23:30:47.496Z,14.01
2023-05-11T23:33:15.061Z,13.88
2023-05-11T23:35:41.842Z,13.83
2023-05-11T23:38:08.538Z,13.76
2023-05-11T23:40:35.230Z,13.70
2023-05-11T23:43:02.029Z,13.73
2023-05-11T23:45:28.759Z,13.70
2023-05-11T23:47:55.453Z,13.73
2023-05-11T23:50:22.201Z,13.63
2023-05-11T23:52:49.664Z,13.59
2023-05-11T23:55:16.334Z,13.61
2023-05-11T23:57:43.788Z,13.60
